sensor_id;sensor_type;location;lat;lon;timestamp;P1;durP1;ratioP1;P2;durP2;ratioP2
5867;SDS011;2960;49.142;7.768;2022-09-27T00:01:56;9.20;;;3.33;;
5867;SDS011;2960;49.142;7.768;2022-09-27T00:04:23;9.77;;;3.50;;
5867;SDS011;2960;49.142;7.768;2022-09-27T00:06:50;9.80;;;3.60;;
5867;SDS011;2960;49.142;7.768;2022-09-27T00:09:17;9.50;;;3.53;;
5867;SDS011;2960;49.142;7.768;2022-09-27T00:11:46;9.07;;;3.30;;
5867;SDS011;2960;49.142;7.768;2022-09-27T00:14:14;9.33;;;3.50;;
5867;SDS011;2960;49.142;7.768;2022-09-27T00:16:43;9.23;;;3.50;;
5867;SDS011;2960;49.142;7.768;2022-09-27T00:19:12;9.37;;;3.43;;
5867;SDS011;2960;49.142;7.768;2022-09-27T00:21:42;9.43;;;3.60;;
5867;SDS011;2960;49.142;7.768;2022-09-27T00:24:11;9.53;;;3.80;;
5867;SDS011;2960;49.142;7.768;2022-09-27T00:26:40;9.40;;;3.60;;
5867;SDS011;2960;49.142;7.768;2022-09-27T00:29:09;9.33;;;3.50;;
5867;SDS011;2960;49.142;7.768;2022-09-27T00:31:37;9.30;;;3.43;;
5867;SDS011;2960;49.142;7.768;2022-09-27T00:34:05;10.90;;;3.80;;
5867;SDS011;2960;49.142;7.768;2022-09-27T00:36:35;9.93;;;3.90;;
5867;SDS011;2960;49.142;7.768;2022-09-27T00:39:02;9.60;;;3.80;;
5867;SDS011;2960;49.142;7.768;2022-09-27T00:41:30;10.00;;;3.50;;
5867;SDS011;2960;49.142;7.768;2022-09-27T00:44:00;9.50;;;3.40;;
5867;SDS011;2960;49.142;7.768;2022-09-27T00:46:32;9.80;;;3.40;;
5867;SDS011;2960;49.142;7.768;2022-09-27T00:49:05;10.50;;;3.60;;
5867;SDS011;2960;49.142;7.768;2022-09-27T00:51:41;9.47;;;3.43;;
5867;SDS011;2960;49.142;7.768;2022-09-27T00:54:12;9.70;;;3.60;;
5867;SDS011;2960;49.142;7.768;2022-09-27T00:56:43;9.50;;;3.70;;
5867;SDS011;2960;49.142;7.768;2022-09-27T00:59:13;9.37;;;3.70;;
5867;SDS011;2960;49.142;7.768;2022-09-27T01:01:47;9.50;;;3.70;;
5867;SDS011;2960;49.142;7.768;2022-09-27T01:04:16;10.30;;;3.53;;
5867;SDS011;2960;49.142;7.768;2022-09-27T01:06:48;10.00;;;3.40;;
5867;SDS011;2960;49.142;7.768;2022-09-27T01:09:16;9.60;;;4.00;;
5867;SDS011;2960;49.142;7.768;2022-09-27T01:11:45;9.53;;;3.43;;
5867;SDS011;2960;49.142;7.768;2022-09-27T01:17:19;10.00;;;4.00;;
5867;SDS011;2960;49.142;7.768;2022-09-27T01:23:19;9.60;;;3.70;;
5867;SDS011;2960;49.142;7.768;2022-09-27T01:26:14;9.23;;;3.40;;
5867;SDS011;2960;49.142;7.768;2022-09-27T01:28:55;10.10;;;3.90;;
5867;SDS011;2960;49.142;7.768;2022-09-27T01:31:32;9.50;;;3.63;;
5867;SDS011;2960;49.142;7.768;2022-09-27T01:34:06;10.33;;;3.73;;
5867;SDS011;2960;49.142;7.768;2022-09-27T01:36:46;10.10;;;3.90;;
5867;SDS011;2960;49.142;7.768;2022-09-27T01:39:25;10.00;;;4.00;;
5867;SDS011;2960;49.142;7.768;2022-09-27T01:42:04;9.63;;;3.70;;
5867;SDS011;2960;49.142;7.768;2022-09-27T01:44:38;9.93;;;4.10;;
5867;SDS011;2960;49.142;7.768;2022-09-27T01:47:13;10.10;;;3.90;;
5867;SDS011;2960;49.142;7.768;2022-09-27T01:49:46;10.83;;;3.70;;
5867;SDS011;2960;49.142;7.768;2022-09-27T01:52:21;10.90;;;4.50;;
5867;SDS011;2960;49.142;7.768;2022-09-27T01:54:56;10.27;;;4.17;;
5867;SDS011;2960;49.142;7.768;2022-09-27T01:57:29;10.40;;;3.50;;
5867;SDS011;2960;49.142;7.768;2022-09-27T02:00:03;10.87;;;4.20;;
5867;SDS011;2960;49.142;7.768;2022-09-27T02:02:34;10.50;;;4.00;;
5867;SDS011;2960;49.142;7.768;2022-09-27T02:05:07;10.43;;;4.20;;
5867;SDS011;2960;49.142;7.768;2022-09-27T02:07:39;9.57;;;3.60;;
5867;SDS011;2960;49.142;7.768;2022-09-27T02:10:12;10.20;;;3.97;;
5867;SDS011;2960;49.142;7.768;2022-09-27T02:12:46;11.37;;;3.90;;
5867;SDS011;2960;49.142;7.768;2022-09-27T02:15:22;10.10;;;4.00;;
5867;SDS011;2960;49.142;7.768;2022-09-27T02:17:54;10.00;;;3.90;;
5867;SDS011;2960;49.142;7.768;2022-09-27T02:20:28;9.87;;;4.10;;
5867;SDS011;2960;49.142;7.768;2022-09-27T02:23:04;11.30;;;4.07;;
5867;SDS011;2960;49.142;7.768;2022-09-27T02:25:41;10.40;;;4.50;;
5867;SDS011;2960;49.142;7.768;2022-09-27T02:28:20;11.30;;;4.30;;
5867;SDS011;2960;49.142;7.768;2022-09-27T02:30:52;10.63;;;4.20;;
5867;SDS011;2960;49.142;7.768;2022-09-27T02:33:22;10.40;;;4.10;;
5867;SDS011;2960;49.142;7.768;2022-09-27T02:35:55;10.43;;;4.20;;
5867;SDS011;2960;49.142;7.768;2022-09-27T02:38:23;10.03;;;3.83;;
5867;SDS011;2960;49.142;7.768;2022-09-27T02:40:51;10.00;;;3.70;;
5867;SDS011;2960;49.142;7.768;2022-09-27T02:43:18;11.70;;;3.90;;
5867;SDS011;2960;49.142;7.768;2022-09-27T02:45:53;10.53;;;3.97;;
5867;SDS011;2960;49.142;7.768;2022-09-27T02:48:42;10.10;;;3.97;;
5867;SDS011;2960;49.142;7.768;2022-09-27T02:51:25;10.30;;;4.13;;
5867;SDS011;2960;49.142;7.768;2022-09-27T02:54:06;10.90;;;4.40;;
5867;SDS011;2960;49.142;7.768;2022-09-27T02:56:46;11.27;;;4.33;;
5867;SDS011;2960;49.142;7.768;2022-09-27T02:59:26;10.67;;;3.80;;
5867;SDS011;2960;49.142;7.768;2022-09-27T03:02:10;11.80;;;3.87;;
5867;SDS011;2960;49.142;7.768;2022-09-27T03:04:46;10.07;;;3.60;;
5867;SDS011;2960;49.142;7.768;2022-09-27T03:07:20;9.67;;;3.80;;
5867;SDS011;2960;49.142;7.768;2022-09-27T03:09:49;10.40;;;3.90;;
5867;SDS011;2960;49.142;7.768;2022-09-27T03:12:18;9.73;;;3.70;;
5867;SDS011;2960;49.142;7.768;2022-09-27T03:14:50;9.90;;;3.60;;
5867;SDS011;2960;49.142;7.768;2022-09-27T03:17:17;10.00;;;3.30;;
5867;SDS011;2960;49.142;7.768;2022-09-27T03:19:46;9.53;;;3.37;;
5867;SDS011;2960;49.142;7.768;2022-09-27T03:22:13;9.70;;;3.50;;
5867;SDS011;2960;49.142;7.768;2022-09-27T03:24:40;10.77;;;3.43;;
5867;SDS011;2960;49.142;7.768;2022-09-27T03:27:07;9.70;;;3.50;;
5867;SDS011;2960;49.142;7.768;2022-09-27T03:29:35;9.80;;;3.63;;
5867;SDS011;2960;49.142;7.768;2022-09-27T03:32:02;9.40;;;3.53;;
5867;SDS011;2960;49.142;7.768;2022-09-27T03:34:29;9.50;;;3.47;;
5867;SDS011;2960;49.142;7.768;2022-09-27T03:36:58;10.57;;;3.70;;
5867;SDS011;2960;49.142;7.768;2022-09-27T03:39:25;10.90;;;3.27;;
5867;SDS011;2960;49.142;7.768;2022-09-27T03:41:53;9.67;;;3.40;;
5867;SDS011;2960;49.142;7.768;2022-09-27T03:44:20;10.10;;;3.43;;
5867;SDS011;2960;49.142;7.768;2022-09-27T03:46:48;9.50;;;3.40;;
5867;SDS011;2960;49.142;7.768;2022-09-27T03:49:15;9.50;;;3.40;;
5867;SDS011;2960;49.142;7.768;2022-09-27T03:51:42;12.70;;;3.53;;
5867;SDS011;2960;49.142;7.768;2022-09-27T03:54:11;9.47;;;3.00;;
5867;SDS011;2960;49.142;7.768;2022-09-27T03:56:38;10.00;;;3.60;;
5867;SDS011;2960;49.142;7.768;2022-09-27T03:59:05;9.40;;;3.47;;
5867;SDS011;2960;49.142;7.768;2022-09-27T04:01:32;9.43;;;3.30;;
5867;SDS011;2960;49.142;7.768;2022-09-27T04:04:01;9.33;;;3.30;;
5867;SDS011;2960;49.142;7.768;2022-09-27T04:06:29;9.20;;;3.30;;
5867;SDS011;2960;49.142;7.768;2022-09-27T04:08:59;8.93;;;2.80;;
5867;SDS011;2960;49.142;7.768;2022-09-27T04:11:29;10.30;;;3.47;;
5867;SDS011;2960;49.142;7.768;2022-09-27T04:13:56;10.93;;;3.60;;
5867;SDS011;2960;49.142;7.768;2022-09-27T04:16:23;9.23;;;3.30;;
5867;SDS011;2960;49.142;7.768;2022-09-27T04:18:51;9.20;;;3.10;;
5867;SDS011;2960;49.142;7.768;2022-09-27T04:21:18;9.23;;;3.20;;
5867;SDS011;2960;49.142;7.768;2022-09-27T04:23:46;10.50;;;3.33;;
5867;SDS011;2960;49.142;7.768;2022-09-27T04:26:14;9.30;;;3.30;;
5867;SDS011;2960;49.142;7.768;2022-09-27T04:28:42;9.70;;;3.30;;
5867;SDS011;2960;49.142;7.768;2022-09-27T04:31:10;9.23;;;3.20;;
5867;SDS011;2960;49.142;7.768;2022-09-27T04:33:37;9.10;;;3.07;;
5867;SDS011;2960;49.142;7.768;2022-09-27T04:36:05;9.03;;;3.00;;
5867;SDS011;2960;49.142;7.768;2022-09-27T04:38:50;9.40;;;3.33;;
5867;SDS011;2960;49.142;7.768;2022-09-27T04:41:18;9.10;;;3.03;;
5867;SDS011;2960;49.142;7.768;2022-09-27T04:43:48;9.50;;;3.10;;
5867;SDS011;2960;49.142;7.768;2022-09-27T04:46:16;9.23;;;3.10;;
5867;SDS011;2960;49.142;7.768;2022-09-27T04:48:44;9.10;;;2.83;;
5867;SDS011;2960;49.142;7.768;2022-09-27T04:51:11;9.47;;;3.00;;
5867;SDS011;2960;49.142;7.768;2022-09-27T04:53:40;10.17;;;3.33;;
5867;SDS011;2960;49.142;7.768;2022-09-27T04:56:09;9.07;;;3.10;;
5867;SDS011;2960;49.142;7.768;2022-09-27T04:58:37;9.87;;;3.53;;
5867;SDS011;2960;49.142;7.768;2022-09-27T05:01:06;9.67;;;3.30;;
5867;SDS011;2960;49.142;7.768;2022-09-27T05:03:33;9.23;;;3.07;;
5867;SDS011;2960;49.142;7.768;2022-09-27T05:06:01;9.60;;;3.07;;
5867;SDS011;2960;49.142;7.768;2022-09-27T05:08:28;9.50;;;3.37;;
5867;SDS011;2960;49.142;7.768;2022-09-27T05:10:56;9.57;;;3.40;;
5867;SDS011;2960;49.142;7.768;2022-09-27T05:13:23;9.97;;;3.33;;
5867;SDS011;2960;49.142;7.768;2022-09-27T05:15:50;9.30;;;3.30;;
5867;SDS011;2960;49.142;7.768;2022-09-27T05:18:19;9.90;;;2.97;;
5867;SDS011;2960;49.142;7.768;2022-09-27T05:20:46;9.10;;;3.00;;
5867;SDS011;2960;49.142;7.768;2022-09-27T05:23:13;9.30;;;3.07;;
5867;SDS011;2960;49.142;7.768;2022-09-27T05:25:40;8.90;;;2.87;;
5867;SDS011;2960;49.142;7.768;2022-09-27T05:28:08;9.30;;;2.63;;
5867;SDS011;2960;49.142;7.768;2022-09-27T05:30:35;9.10;;;2.57;;
5867;SDS011;2960;49.142;7.768;2022-09-27T05:33:02;9.00;;;2.80;;
5867;SDS011;2960;49.142;7.768;2022-09-27T05:35:34;9.20;;;2.90;;
5867;SDS011;2960;49.142;7.768;2022-09-27T05:38:01;9.50;;;2.90;;
5867;SDS011;2960;49.142;7.768;2022-09-27T05:40:28;10.30;;;3.67;;
5867;SDS011;2960;49.142;7.768;2022-09-27T05:42:55;9.80;;;3.60;;
5867;SDS011;2960;49.142;7.768;2022-09-27T05:45:23;9.47;;;3.60;;
5867;SDS011;2960;49.142;7.768;2022-09-27T05:47:51;9.20;;;3.37;;
5867;SDS011;2960;49.142;7.768;2022-09-27T05:50:20;9.70;;;3.87;;
5867;SDS011;2960;49.142;7.768;2022-09-27T05:52:49;9.43;;;3.40;;
5867;SDS011;2960;49.142;7.768;2022-09-27T05:55:17;10.07;;;3.73;;
5867;SDS011;2960;49.142;7.768;2022-09-27T05:57:52;9.60;;;3.80;;
5867;SDS011;2960;49.142;7.768;2022-09-27T06:00:21;10.40;;;3.90;;
5867;SDS011;2960;49.142;7.768;2022-09-27T06:02:53;9.67;;;3.40;;
5867;SDS011;2960;49.142;7.768;2022-09-27T06:05:21;9.33;;;3.30;;
5867;SDS011;2960;49.142;7.768;2022-09-27T06:07:50;9.60;;;3.67;;
5867;SDS011;2960;49.142;7.768;2022-09-27T06:10:23;10.73;;;3.70;;
5867;SDS011;2960;49.142;7.768;2022-09-27T06:12:50;10.93;;;4.03;;
5867;SDS011;2960;49.142;7.768;2022-09-27T06:15:18;9.47;;;3.50;;
5867;SDS011;2960;49.142;7.768;2022-09-27T06:17:45;9.43;;;3.40;;
5867;SDS011;2960;49.142;7.768;2022-09-27T06:20:12;10.00;;;3.60;;
5867;SDS011;2960;49.142;7.768;2022-09-27T06:22:41;9.50;;;3.63;;
5867;SDS011;2960;49.142;7.768;2022-09-27T06:25:11;9.60;;;3.73;;
5867;SDS011;2960;49.142;7.768;2022-09-27T06:27:38;9.47;;;3.77;;
5867;SDS011;2960;49.142;7.768;2022-09-27T06:30:06;9.63;;;3.63;;
5867;SDS011;2960;49.142;7.768;2022-09-27T06:32:36;10.00;;;3.73;;
5867;SDS011;2960;49.142;7.768;2022-09-27T06:35:04;9.43;;;3.43;;
5867;SDS011;2960;49.142;7.768;2022-09-27T06:37:32;11.10;;;3.70;;
5867;SDS011;2960;49.142;7.768;2022-09-27T06:39:59;9.97;;;3.50;;
5867;SDS011;2960;49.142;7.768;2022-09-27T06:42:29;13.10;;;3.77;;
5867;SDS011;2960;49.142;7.768;2022-09-27T06:44:57;9.60;;;3.50;;
5867;SDS011;2960;49.142;7.768;2022-09-27T06:47:24;9.30;;;3.50;;
5867;SDS011;2960;49.142;7.768;2022-09-27T06:49:53;9.30;;;3.27;;
5867;SDS011;2960;49.142;7.768;2022-09-27T06:52:20;9.50;;;3.53;;
5867;SDS011;2960;49.142;7.768;2022-09-27T06:54:47;9.40;;;3.33;;
5867;SDS011;2960;49.142;7.768;2022-09-27T06:57:14;9.60;;;3.30;;
5867;SDS011;2960;49.142;7.768;2022-09-27T07:00:03;10.27;;;3.00;;
5867;SDS011;2960;49.142;7.768;2022-09-27T07:02:50;9.27;;;3.47;;
5867;SDS011;2960;49.142;7.768;2022-09-27T07:05:19;9.80;;;3.70;;
5867;SDS011;2960;49.142;7.768;2022-09-27T07:07:46;9.20;;;3.30;;
5867;SDS011;2960;49.142;7.768;2022-09-27T07:10:14;9.60;;;3.63;;
5867;SDS011;2960;49.142;7.768;2022-09-27T07:12:42;9.57;;;3.37;;
5867;SDS011;2960;49.142;7.768;2022-09-27T07:15:14;9.50;;;3.70;;
5867;SDS011;2960;49.142;7.768;2022-09-27T07:17:41;9.50;;;3.67;;
5867;SDS011;2960;49.142;7.768;2022-09-27T07:20:08;9.40;;;3.50;;
5867;SDS011;2960;49.142;7.768;2022-09-27T07:22:38;9.40;;;3.40;;
5867;SDS011;2960;49.142;7.768;2022-09-27T07:25:07;10.27;;;3.50;;
5867;SDS011;2960;49.142;7.768;2022-09-27T07:27:34;9.40;;;3.00;;
5867;SDS011;2960;49.142;7.768;2022-09-27T07:30:02;9.43;;;3.50;;
5867;SDS011;2960;49.142;7.768;2022-09-27T07:32:32;9.50;;;3.43;;
5867;SDS011;2960;49.142;7.768;2022-09-27T07:35:01;9.60;;;3.73;;
5867;SDS011;2960;49.142;7.768;2022-09-27T07:37:30;9.60;;;3.30;;
5867;SDS011;2960;49.142;7.768;2022-09-27T07:39:58;9.40;;;3.47;;
5867;SDS011;2960;49.142;7.768;2022-09-27T07:42:26;9.40;;;3.43;;
5867;SDS011;2960;49.142;7.768;2022-09-27T07:44:55;9.70;;;3.57;;
5867;SDS011;2960;49.142;7.768;2022-09-27T07:47:22;9.20;;;3.10;;
5867;SDS011;2960;49.142;7.768;2022-09-27T07:49:52;9.90;;;3.43;;
5867;SDS011;2960;49.142;7.768;2022-09-27T07:52:20;9.63;;;3.50;;
5867;SDS011;2960;49.142;7.768;2022-09-27T07:54:47;10.20;;;3.90;;
5867;SDS011;2960;49.142;7.768;2022-09-27T07:57:15;11.70;;;3.53;;
5867;SDS011;2960;49.142;7.768;2022-09-27T07:59:42;9.53;;;3.63;;
5867;SDS011;2960;49.142;7.768;2022-09-27T08:02:10;9.40;;;3.43;;
5867;SDS011;2960;49.142;7.768;2022-09-27T08:04:40;9.67;;;3.77;;
5867;SDS011;2960;49.142;7.768;2022-09-27T08:07:09;9.90;;;4.00;;
5867;SDS011;2960;49.142;7.768;2022-09-27T08:09:36;11.27;;;3.80;;
5867;SDS011;2960;49.142;7.768;2022-09-27T08:12:04;11.20;;;3.70;;
5867;SDS011;2960;49.142;7.768;2022-09-27T08:14:31;10.27;;;3.77;;
5867;SDS011;2960;49.142;7.768;2022-09-27T08:16:59;9.73;;;3.63;;
5867;SDS011;2960;49.142;7.768;2022-09-27T08:19:26;10.57;;;3.90;;
5867;SDS011;2960;49.142;7.768;2022-09-27T08:21:54;11.20;;;3.87;;
5867;SDS011;2960;49.142;7.768;2022-09-27T08:24:22;10.57;;;3.90;;
5867;SDS011;2960;49.142;7.768;2022-09-27T08:26:50;10.60;;;4.13;;
5867;SDS011;2960;49.142;7.768;2022-09-27T08:29:17;10.97;;;4.20;;
5867;SDS011;2960;49.142;7.768;2022-09-27T08:31:44;10.40;;;4.30;;
5867;SDS011;2960;49.142;7.768;2022-09-27T08:34:12;9.70;;;3.70;;
5867;SDS011;2960;49.142;7.768;2022-09-27T08:36:39;10.13;;;3.90;;
5867;SDS011;2960;49.142;7.768;2022-09-27T08:39:08;9.80;;;3.70;;
5867;SDS011;2960;49.142;7.768;2022-09-27T08:41:37;12.37;;;4.57;;
5867;SDS011;2960;49.142;7.768;2022-09-27T08:44:16;9.90;;;4.10;;
5867;SDS011;2960;49.142;7.768;2022-09-27T08:46:55;11.37;;;3.67;;
5867;SDS011;2960;49.142;7.768;2022-09-27T08:49:30;11.13;;;3.80;;
5867;SDS011;2960;49.142;7.768;2022-09-27T08:52:02;10.40;;;3.60;;
5867;SDS011;2960;49.142;7.768;2022-09-27T08:54:33;11.17;;;3.80;;
5867;SDS011;2960;49.142;7.768;2022-09-27T08:57:05;10.50;;;3.63;;
5867;SDS011;2960;49.142;7.768;2022-09-27T08:59:38;10.60;;;3.90;;
5867;SDS011;2960;49.142;7.768;2022-09-27T09:02:12;10.10;;;3.90;;
5867;SDS011;2960;49.142;7.768;2022-09-27T09:04:49;12.43;;;3.67;;
5867;SDS011;2960;49.142;7.768;2022-09-27T09:07:24;11.50;;;3.80;;
5867;SDS011;2960;49.142;7.768;2022-09-27T09:10:14;10.33;;;3.90;;
5867;SDS011;2960;49.142;7.768;2022-09-27T09:13:17;13.10;;;3.90;;
5867;SDS011;2960;49.142;7.768;2022-09-27T09:16:01;10.30;;;3.97;;
5867;SDS011;2960;49.142;7.768;2022-09-27T09:18:39;11.40;;;3.57;;
5867;SDS011;2960;49.142;7.768;2022-09-27T09:21:23;10.50;;;4.10;;
5867;SDS011;2960;49.142;7.768;2022-09-27T09:24:10;17.87;;;4.50;;
5867;SDS011;2960;49.142;7.768;2022-09-27T09:26:54;10.63;;;4.50;;
5867;SDS011;2960;49.142;7.768;2022-09-27T09:29:32;11.60;;;3.70;;
5867;SDS011;2960;49.142;7.768;2022-09-27T09:32:21;10.67;;;4.10;;
5867;SDS011;2960;49.142;7.768;2022-09-27T09:35:05;9.80;;;3.50;;
5867;SDS011;2960;49.142;7.768;2022-09-27T09:37:39;10.23;;;3.47;;
5867;SDS011;2960;49.142;7.768;2022-09-27T09:40:14;10.70;;;3.80;;
5867;SDS011;2960;49.142;7.768;2022-09-27T09:42:48;12.83;;;3.83;;
5867;SDS011;2960;49.142;7.768;2022-09-27T09:45:23;10.20;;;3.30;;
5867;SDS011;2960;49.142;7.768;2022-09-27T09:47:56;9.67;;;3.63;;
5867;SDS011;2960;49.142;7.768;2022-09-27T09:50:29;9.80;;;3.40;;
5867;SDS011;2960;49.142;7.768;2022-09-27T09:53:03;11.03;;;3.50;;
5867;SDS011;2960;49.142;7.768;2022-09-27T09:55:38;10.30;;;3.47;;
5867;SDS011;2960;49.142;7.768;2022-09-27T09:58:12;9.57;;;3.50;;
5867;SDS011;2960;49.142;7.768;2022-09-27T10:00:54;10.20;;;3.50;;
5867;SDS011;2960;49.142;7.768;2022-09-27T10:03:25;11.00;;;4.00;;
5867;SDS011;2960;49.142;7.768;2022-09-27T10:05:53;10.03;;;3.77;;
5867;SDS011;2960;49.142;7.768;2022-09-27T10:08:21;9.87;;;3.77;;
5867;SDS011;2960;49.142;7.768;2022-09-27T10:10:49;10.33;;;3.90;;
5867;SDS011;2960;49.142;7.768;2022-09-27T10:13:17;10.67;;;3.70;;
5867;SDS011;2960;49.142;7.768;2022-09-27T10:15:48;10.70;;;4.30;;
5867;SDS011;2960;49.142;7.768;2022-09-27T10:18:21;10.70;;;4.00;;
5867;SDS011;2960;49.142;7.768;2022-09-27T10:20:51;10.67;;;4.20;;
5867;SDS011;2960;49.142;7.768;2022-09-27T10:23:22;10.80;;;4.30;;
5867;SDS011;2960;49.142;7.768;2022-09-27T10:25:51;11.77;;;4.80;;
5867;SDS011;2960;49.142;7.768;2022-09-27T10:28:25;11.30;;;4.10;;
5867;SDS011;2960;49.142;7.768;2022-09-27T10:30:58;11.30;;;4.37;;
5867;SDS011;2960;49.142;7.768;2022-09-27T10:33:29;10.73;;;4.10;;
5867;SDS011;2960;49.142;7.768;2022-09-27T10:35:57;11.17;;;4.80;;
5867;SDS011;2960;49.142;7.768;2022-09-27T10:38:26;10.80;;;4.40;;
5867;SDS011;2960;49.142;7.768;2022-09-27T10:40:56;10.43;;;3.87;;
5867;SDS011;2960;49.142;7.768;2022-09-27T10:43:40;10.63;;;4.20;;
5867;SDS011;2960;49.142;7.768;2022-09-27T10:46:14;10.90;;;4.20;;
5867;SDS011;2960;49.142;7.768;2022-09-27T10:51:37;10.47;;;3.63;;
5867;SDS011;2960;49.142;7.768;2022-09-27T10:54:04;10.60;;;3.50;;
5867;SDS011;2960;49.142;7.768;2022-09-27T10:56:44;10.17;;;3.33;;
5867;SDS011;2960;49.142;7.768;2022-09-27T10:59:21;10.47;;;3.37;;
5867;SDS011;2960;49.142;7.768;2022-09-27T11:01:50;10.67;;;3.80;;
5867;SDS011;2960;49.142;7.768;2022-09-27T11:04:19;10.33;;;3.53;;
5867;SDS011;2960;49.142;7.768;2022-09-27T11:07:01;10.70;;;3.47;;
5867;SDS011;2960;49.142;7.768;2022-09-27T11:09:43;10.30;;;3.60;;
5867;SDS011;2960;49.142;7.768;2022-09-27T11:12:13;11.93;;;3.90;;
5867;SDS011;2960;49.142;7.768;2022-09-27T11:14:45;11.10;;;3.80;;
5867;SDS011;2960;49.142;7.768;2022-09-27T11:17:23;10.23;;;4.00;;
5867;SDS011;2960;49.142;7.768;2022-09-27T11:20:14;10.60;;;4.40;;
5867;SDS011;2960;49.142;7.768;2022-09-27T11:23:01;10.40;;;4.23;;
5867;SDS011;2960;49.142;7.768;2022-09-27T11:26:05;11.30;;;4.20;;
5867;SDS011;2960;49.142;7.768;2022-09-27T11:28:50;10.30;;;3.77;;
5867;SDS011;2960;49.142;7.768;2022-09-27T11:31:30;10.10;;;3.60;;
5867;SDS011;2960;49.142;7.768;2022-09-27T11:34:18;10.50;;;3.67;;
5867;SDS011;2960;49.142;7.768;2022-09-27T11:37:04;11.07;;;3.90;;
5867;SDS011;2960;49.142;7.768;2022-09-27T11:39:46;11.13;;;4.27;;
5867;SDS011;2960;49.142;7.768;2022-09-27T11:42:31;11.70;;;3.80;;
5867;SDS011;2960;49.142;7.768;2022-09-27T11:45:28;11.90;;;3.83;;
5867;SDS011;2960;49.142;7.768;2022-09-27T11:48:13;11.03;;;3.60;;
5867;SDS011;2960;49.142;7.768;2022-09-27T11:51:06;10.10;;;3.63;;
5867;SDS011;2960;49.142;7.768;2022-09-27T11:53:47;10.70;;;3.60;;
5867;SDS011;2960;49.142;7.768;2022-09-27T11:56:45;10.17;;;3.40;;
5867;SDS011;2960;49.142;7.768;2022-09-27T11:59:30;9.90;;;3.20;;
5867;SDS011;2960;49.142;7.768;2022-09-27T12:02:34;9.83;;;3.37;;
5867;SDS011;2960;49.142;7.768;2022-09-27T12:05:35;9.90;;;3.30;;
5867;SDS011;2960;49.142;7.768;2022-09-27T12:08:24;9.80;;;3.30;;
5867;SDS011;2960;49.142;7.768;2022-09-27T12:11:01;9.90;;;3.50;;
5867;SDS011;2960;49.142;7.768;2022-09-27T12:13:37;10.20;;;3.60;;
5867;SDS011;2960;49.142;7.768;2022-09-27T12:16:09;10.50;;;3.30;;
5867;SDS011;2960;49.142;7.768;2022-09-27T12:18:41;10.00;;;3.53;;
5867;SDS011;2960;49.142;7.768;2022-09-27T12:21:11;9.93;;;3.40;;
5867;SDS011;2960;49.142;7.768;2022-09-27T12:23:41;9.90;;;3.17;;
5867;SDS011;2960;49.142;7.768;2022-09-27T12:26:12;10.30;;;3.30;;
5867;SDS011;2960;49.142;7.768;2022-09-27T12:28:44;10.40;;;3.30;;
5867;SDS011;2960;49.142;7.768;2022-09-27T12:31:20;10.30;;;3.67;;
5867;SDS011;2960;49.142;7.768;2022-09-27T12:33:56;10.53;;;3.47;;
5867;SDS011;2960;49.142;7.768;2022-09-27T12:36:38;10.00;;;3.60;;
5867;SDS011;2960;49.142;7.768;2022-09-27T12:39:12;10.30;;;3.87;;
5867;SDS011;2960;49.142;7.768;2022-09-27T12:41:47;10.43;;;3.50;;
5867;SDS011;2960;49.142;7.768;2022-09-27T12:44:26;10.40;;;3.60;;
5867;SDS011;2960;49.142;7.768;2022-09-27T12:47:03;10.30;;;3.50;;
5867;SDS011;2960;49.142;7.768;2022-09-27T12:49:41;10.00;;;3.37;;
5867;SDS011;2960;49.142;7.768;2022-09-27T12:52:19;9.73;;;3.20;;
5867;SDS011;2960;49.142;7.768;2022-09-27T12:57:57;9.60;;;3.30;;
5867;SDS011;2960;49.142;7.768;2022-09-27T13:00:40;10.00;;;3.77;;
5867;SDS011;2960;49.142;7.768;2022-09-27T13:03:16;9.77;;;3.60;;
5867;SDS011;2960;49.142;7.768;2022-09-27T13:06:07;9.70;;;3.37;;
5867;SDS011;2960;49.142;7.768;2022-09-27T13:09:15;9.57;;;3.13;;
5867;SDS011;2960;49.142;7.768;2022-09-27T13:12:09;9.60;;;3.30;;
5867;SDS011;2960;49.142;7.768;2022-09-27T13:14:42;10.00;;;3.53;;
5867;SDS011;2960;49.142;7.768;2022-09-27T13:20:39;10.70;;;3.57;;
5867;SDS011;2960;49.142;7.768;2022-09-27T13:29:28;11.83;;;3.40;;
5867;SDS011;2960;49.142;7.768;2022-09-27T13:32:02;9.67;;;3.20;;
5867;SDS011;2960;49.142;7.768;2022-09-27T13:34:52;9.70;;;3.20;;
5867;SDS011;2960;49.142;7.768;2022-09-27T13:37:32;9.50;;;3.10;;
5867;SDS011;2960;49.142;7.768;2022-09-27T13:40:24;9.60;;;3.30;;
5867;SDS011;2960;49.142;7.768;2022-09-27T13:43:03;9.60;;;3.00;;
5867;SDS011;2960;49.142;7.768;2022-09-27T13:46:15;9.63;;;3.30;;
5867;SDS011;2960;49.142;7.768;2022-09-27T13:48:46;9.93;;;3.40;;
5867;SDS011;2960;49.142;7.768;2022-09-27T13:51:22;9.40;;;3.10;;
5867;SDS011;2960;49.142;7.768;2022-09-27T13:54:00;10.20;;;3.60;;
5867;SDS011;2960;49.142;7.768;2022-09-27T13:56:48;10.00;;;3.57;;
5867;SDS011;2960;49.142;7.768;2022-09-27T13:59:22;10.77;;;3.50;;
5867;SDS011;2960;49.142;7.768;2022-09-27T14:02:00;9.30;;;2.80;;
5867;SDS011;2960;49.142;7.768;2022-09-27T14:04:40;9.47;;;3.20;;
5867;SDS011;2960;49.142;7.768;2022-09-27T14:07:14;9.77;;;3.73;;
5867;SDS011;2960;49.142;7.768;2022-09-27T14:09:45;9.73;;;3.47;;
5867;SDS011;2960;49.142;7.768;2022-09-27T14:12:18;9.80;;;3.50;;
5867;SDS011;2960;49.142;7.768;2022-09-27T14:14:48;10.97;;;3.70;;
5867;SDS011;2960;49.142;7.768;2022-09-27T14:17:21;9.77;;;3.70;;
5867;SDS011;2960;49.142;7.768;2022-09-27T14:19:50;9.77;;;3.37;;
5867;SDS011;2960;49.142;7.768;2022-09-27T14:22:19;9.90;;;3.50;;
5867;SDS011;2960;49.142;7.768;2022-09-27T14:24:48;9.57;;;3.50;;
5867;SDS011;2960;49.142;7.768;2022-09-27T14:27:18;9.80;;;3.50;;
5867;SDS011;2960;49.142;7.768;2022-09-27T14:29:48;10.00;;;3.57;;
5867;SDS011;2960;49.142;7.768;2022-09-27T14:32:19;9.80;;;3.50;;
5867;SDS011;2960;49.142;7.768;2022-09-27T14:35:02;10.23;;;3.47;;
5867;SDS011;2960;49.142;7.768;2022-09-27T14:37:56;9.50;;;3.17;;
5867;SDS011;2960;49.142;7.768;2022-09-27T14:40:23;9.73;;;3.30;;
5867;SDS011;2960;49.142;7.768;2022-09-27T14:42:51;9.73;;;3.17;;
5867;SDS011;2960;49.142;7.768;2022-09-27T14:45:21;10.87;;;3.10;;
5867;SDS011;2960;49.142;7.768;2022-09-27T14:47:53;10.03;;;3.97;;
5867;SDS011;2960;49.142;7.768;2022-09-27T14:50:23;10.80;;;4.00;;
5867;SDS011;2960;49.142;7.768;2022-09-27T14:52:53;10.30;;;3.63;;
5867;SDS011;2960;49.142;7.768;2022-09-27T14:55:22;9.73;;;3.40;;
5867;SDS011;2960;49.142;7.768;2022-09-27T14:57:52;10.30;;;3.50;;
5867;SDS011;2960;49.142;7.768;2022-09-27T15:00:23;10.40;;;3.57;;
5867;SDS011;2960;49.142;7.768;2022-09-27T15:02:54;9.50;;;2.97;;
5867;SDS011;2960;49.142;7.768;2022-09-27T15:05:23;10.10;;;3.33;;
5867;SDS011;2960;49.142;7.768;2022-09-27T15:07:52;9.30;;;3.00;;
5867;SDS011;2960;49.142;7.768;2022-09-27T15:10:22;9.70;;;3.30;;
5867;SDS011;2960;49.142;7.768;2022-09-27T15:12:55;9.33;;;3.20;;
5867;SDS011;2960;49.142;7.768;2022-09-27T15:15:26;9.77;;;3.20;;
5867;SDS011;2960;49.142;7.768;2022-09-27T15:17:57;9.30;;;2.97;;
5867;SDS011;2960;49.142;7.768;2022-09-27T15:20:25;9.77;;;3.40;;
5867;SDS011;2960;49.142;7.768;2022-09-27T15:22:56;9.50;;;3.30;;
5867;SDS011;2960;49.142;7.768;2022-09-27T15:25:26;10.77;;;3.60;;
5867;SDS011;2960;49.142;7.768;2022-09-27T15:27:59;9.90;;;3.33;;
5867;SDS011;2960;49.142;7.768;2022-09-27T15:30:32;9.60;;;3.50;;
5867;SDS011;2960;49.142;7.768;2022-09-27T15:33:03;9.43;;;3.03;;
5867;SDS011;2960;49.142;7.768;2022-09-27T15:35:31;9.90;;;3.57;;
5867;SDS011;2960;49.142;7.768;2022-09-27T15:38:10;10.00;;;3.73;;
5867;SDS011;2960;49.142;7.768;2022-09-27T15:40:59;9.60;;;3.60;;
5867;SDS011;2960;49.142;7.768;2022-09-27T15:43:39;9.57;;;3.60;;
5867;SDS011;2960;49.142;7.768;2022-09-27T15:51:55;10.57;;;3.90;;
5867;SDS011;2960;49.142;7.768;2022-09-27T15:54:24;10.13;;;3.73;;
5867;SDS011;2960;49.142;7.768;2022-09-27T15:56:54;10.23;;;3.63;;
5867;SDS011;2960;49.142;7.768;2022-09-27T15:59:28;9.83;;;3.87;;
5867;SDS011;2960;49.142;7.768;2022-09-27T16:01:59;9.60;;;3.40;;
5867;SDS011;2960;49.142;7.768;2022-09-27T16:04:29;9.80;;;3.30;;
5867;SDS011;2960;49.142;7.768;2022-09-27T16:06:57;9.70;;;3.00;;
5867;SDS011;2960;49.142;7.768;2022-09-27T16:09:26;9.53;;;3.23;;
5867;SDS011;2960;49.142;7.768;2022-09-27T16:11:53;9.80;;;3.07;;